createdAt,value
2018-05-15T00:02:03.837Z,97304.02
2018-05-15T00:04:31.400Z,97305.39
2018-05-15T00:06:58.995Z,97305.79
2018-05-15T00:09:26.621Z,97305.80
2018-05-15T00:11:54.231Z,97311.13
2018-05-15T00:14:21.944Z,97313.89
2018-05-15T00:16:49.526Z,97312.82
2018-05-15T00:19:17.345Z,97314.86
2018-05-15T00:21:44.937Z,97317.48
2018-05-15T00:24:12.521Z,97313.18
2018-05-15T00:26:40.138Z,97314.58
2018-05-15T00:29:07.744Z,97312.61
2018-05-15T00:31:35.350Z,97308.98
2018-05-15T00:34:03.067Z,97310.88
2018-05-15T00:36:30.827Z,97305.57
2018-05-15T00:38:58.417Z,97313.28
2018-05-15T00:41:26.006Z,97314.25
2018-05-15T00:43:53.633Z,97315.67
2018-05-15T00:46:21.218Z,97314.41
2018-05-15T00:48:48.833Z,97311.84
2018-05-15T00:51:16.442Z,97314.02
2018-05-15T00:53:44.048Z,97320.14
2018-05-15T00:56:11.643Z,97324.77
2018-05-15T00:58:39.253Z,97317.48
2018-05-15T01:01:06.849Z,97317.14
2018-05-15T01:03:34.698Z,97319.14
2018-05-15T01:06:02.289Z,97318.84
2018-05-15T01:08:29.906Z,97313.55
2018-05-15T01:10:57.521Z,97308.16
2018-05-15T01:13:25.123Z,97312.74
2018-05-15T01:15:52.751Z,97307.80
2018-05-15T01:18:20.367Z,97317.14
2018-05-15T01:20:47.954Z,97314.91
2018-05-15T01:23:15.563Z,97311.63
2018-05-15T01:25:43.163Z,97317.61
2018-05-15T01:28:10.787Z,97315.05
2018-05-15T01:30:38.370Z,97324.41
2018-05-15T01:33:05.979Z,97311.34
2018-05-15T01:35:33.607Z,97312.98
2018-05-15T01:38:01.209Z,97314.17
2018-05-15T01:40:28.846Z,97321.69
2018-05-15T01:42:56.449Z,97325.81
2018-05-15T01:45:24.104Z,97318.80
2018-05-15T01:47:51.709Z,97321.13
2018-05-15T01:50:19.306Z,97322.05
2018-05-15T01:52:46.939Z,97324.85
2018-05-15T01:55:14.533Z,97328.05
2018-05-15T01:57:42.145Z,97327.55
2018-05-15T02:00:09.747Z,97327.56
2018-05-15T02:02:37.591Z,97328.58
2018-05-15T02:05:05.186Z,97321.52
2018-05-15T02:07:32.785Z,97323.92
2018-05-15T02:10:00.397Z,97330.69
2018-05-15T02:12:27.993Z,97333.97
2018-05-15T02:14:56.268Z,97337.12
2018-05-15T02:17:23.858Z,97331.03
2018-05-15T02:19:51.496Z,97330.16
2018-05-15T02:22:19.086Z,97334.54
2018-05-15T02:24:46.679Z,97336.20
2018-05-15T02:27:14.307Z,97334.19
2018-05-15T02:29:41.906Z,97336.51
2018-05-15T02:32:09.513Z,97333.78
2018-05-15T02:34:37.204Z,97340.87
2018-05-15T02:37:04.825Z,97337.36
2018-05-15T02:39:32.418Z,97341.13
2018-05-15T02:42:00.020Z,97335.95
2018-05-15T02:44:27.644Z,97341.49
2018-05-15T02:46:55.240Z,97338.50
2018-05-15T02:49:22.853Z,97345.17
2018-05-15T02:51:50.462Z,97346.50
2018-05-15T02:54:18.145Z,97353.46
2018-05-15T02:56:45.734Z,97367.28
2018-05-15T02:59:13.325Z,97362.03
2018-05-15T03:01:40.942Z,97358.65
2018-05-15T03:04:08.537Z,97363.20
2018-05-15T03:06:36.154Z,97363.56
2018-05-15T03:09:03.768Z,97371.09
2018-05-15T03:11:31.608Z,97373.20
2018-05-15T03:13:59.303Z,97370.92
2018-05-15T03:16:26.882Z,97373.77
2018-05-15T03:18:54.721Z,97372.68
2018-05-15T03:21:22.306Z,97379.82
2018-05-15T03:23:50.144Z,97379.17
2018-05-15T03:26:17.742Z,97370.41
2018-05-15T03:28:45.342Z,97373.25
2018-05-15T03:31:12.955Z,97385.80
2018-05-15T03:33:40.549Z,97385.13
2018-05-15T03:36:08.358Z,97387.05
2018-05-15T03:38:35.952Z,97382.23
2018-05-15T03:41:03.540Z,97390.78
2018-05-15T03:43:31.169Z,97392.78
2018-05-15T03:45:58.774Z,97389.50
2018-05-15T03:48:26.427Z,97391.34
2018-05-15T03:50:54.022Z,97397.83
2018-05-15T03:53:21.694Z,97389.89
2018-05-15T03:55:49.284Z,97401.50
2018-05-15T03:58:16.904Z,97398.98
2018-05-15T04:00:56.422Z,97398.49
2018-05-15T04:03:35.804Z,97402.81
2018-05-15T04:06:15.176Z,97399.55
2018-05-15T04:08:42.823Z,97408.49
2018-05-15T04:11:10.546Z,97408.05
2018-05-15T04:13:38.151Z,97411.38
2018-05-15T04:16:05.775Z,97415.58
2018-05-15T04:18:33.401Z,97412.25
2018-05-15T04:21:01.210Z,97410.77
2018-05-15T04:23:28.803Z,97414.41
2018-05-15T04:25:56.431Z,97420.01
2018-05-15T04:28:24.124Z,97416.94
2018-05-15T04:30:51.655Z,97424.22
2018-05-15T04:33:19.260Z,97418.22
2018-05-15T04:35:46.858Z,97420.53
2018-05-15T04:38:14.489Z,97421.72
2018-05-15T04:40:42.085Z,97423.08
2018-05-15T04:43:09.670Z,97429.95
2018-05-15T04:45:37.305Z,97428.86
2018-05-15T04:48:05.401Z,97435.97
2018-05-15T04:50:33.017Z,97439.44
2018-05-15T04:53:00.620Z,97442.63
2018-05-15T04:55:28.388Z,97436.09
2018-05-15T04:57:55.989Z,97441.19
2018-05-15T05:00:23.607Z,97439.39
2018-05-15T05:02:51.229Z,97443.64
2018-05-15T05:05:18.830Z,97437.94
2018-05-15T05:07:46.455Z,97439.56
2018-05-15T05:10:14.055Z,97448.23
2018-05-15T05:12:41.934Z,97449.13
2018-05-15T05:15:09.538Z,97449.91
2018-05-15T05:17:37.436Z,97454.06
2018-05-15T05:20:05.069Z,97456.66
2018-05-15T05:22:32.678Z,97458.89
2018-05-15T05:25:00.294Z,97462.97
2018-05-15T05:27:27.899Z,97463.33
2018-05-15T05:29:55.688Z,97468.53
2018-05-15T05:32:23.305Z,97460.61
2018-05-15T05:34:50.892Z,97467.36
2018-05-15T05:37:18.515Z,97469.33
2018-05-15T05:39:46.113Z,97477.30
2018-05-15T05:42:13.753Z,97477.47
2018-05-15T05:44:41.342Z,97474.75
2018-05-15T05:47:08.973Z,97476.62
2018-05-15T05:49:36.569Z,97480.95
2018-05-15T05:52:04.260Z,97472.71
2018-05-15T05:54:31.811Z,97485.15
2018-05-15T05:56:59.444Z,97481.89
2018-05-15T05:59:27.061Z,97484.79
2018-05-15T06:01:54.664Z,97484.73
2018-05-15T06:04:22.639Z,97484.16
2018-05-15T06:06:50.240Z,97487.00
2018-05-15T06:09:17.851Z,97486.36
2018-05-15T06:11:45.482Z,97486.00
2018-05-15T06:14:13.106Z,97499.04
2018-05-15T06:16:40.713Z,97494.36
2018-05-15T06:19:08.305Z,97500.73
2018-05-15T06:21:36.062Z,97501.91
2018-05-15T06:24:03.664Z,97495.25
2018-05-15T06:26:31.270Z,97495.41
2018-05-15T06:28:58.904Z,97494.83
2018-05-15T06:31:26.508Z,97489.55
2018-05-15T06:33:54.137Z,97494.96
2018-05-15T06:36:21.764Z,97503.15
2018-05-15T06:38:49.566Z,97499.39
2018-05-15T06:41:17.171Z,97500.52
2018-05-15T06:43:44.766Z,97503.91
2018-05-15T06:46:12.382Z,97504.86
2018-05-15T06:48:40.988Z,97500.00
2018-05-15T06:51:08.601Z,97505.02
2018-05-15T06:53:36.215Z,97507.57
2018-05-15T06:56:04.266Z,97505.56
2018-05-15T06:58:31.863Z,97502.73
2018-05-15T07:00:59.458Z,97508.58
2018-05-15T07:03:27.073Z,97508.50
2018-05-15T07:05:54.655Z,97502.28
2018-05-15T07:08:22.273Z,97506.91
2018-05-15T07:10:49.994Z,97499.95
2018-05-15T07:13:17.622Z,97499.73
2018-05-15T07:15:45.261Z,97495.30
2018-05-15T07:18:12.864Z,97503.77
2018-05-15T07:20:40.493Z,97508.70
2018-05-15T07:23:08.083Z,97501.91
2018-05-15T07:25:35.763Z,97499.32
2018-05-15T07:28:03.412Z,97499.06
2018-05-15T07:30:31.146Z,97496.02
2018-05-15T07:32:58.853Z,97496.75
2018-05-15T07:35:31.981Z,97491.33
2018-05-15T07:37:59.969Z,97497.48
2018-05-15T07:40:27.678Z,97499.11
2018-05-15T07:42:55.636Z,97500.94
2018-05-15T07:45:23.228Z,97497.57
2018-05-15T07:47:50.827Z,97499.08
2018-05-15T07:50:19.212Z,97496.46
2018-05-15T07:52:46.811Z,97500.33
2018-05-15T07:55:14.421Z,97494.83
2018-05-15T07:57:42.015Z,97503.75
2018-05-15T08:00:09.829Z,97502.83
2018-05-15T08:02:37.426Z,97498.97
2018-05-15T08:05:05.047Z,97500.59
2018-05-15T08:07:43.233Z,97502.59
2018-05-15T08:10:21.472Z,97493.25
2018-05-15T08:12:49.985Z,97493.94
2018-05-15T08:15:24.654Z,97493.15
2018-05-15T08:17:53.170Z,97493.83
2018-05-15T08:20:20.934Z,97493.02
2018-05-15T08:22:48.933Z,97484.37
2018-05-15T08:25:16.822Z,97491.53
2018-05-15T08:27:44.799Z,97487.42
2018-05-15T08:30:12.838Z,97483.80
2018-05-15T08:32:40.811Z,97483.17
2018-05-15T08:35:08.856Z,97477.27
2018-05-15T08:37:36.692Z,97482.48
2018-05-15T08:40:04.514Z,97477.45
2018-05-15T08:42:32.145Z,97484.25
2018-05-15T08:44:59.739Z,97480.70
2018-05-15T08:47:27.373Z,97485.44
2018-05-15T08:49:54.961Z,97483.34
2018-05-15T08:52:22.623Z,97476.54
2018-05-15T08:54:50.233Z,97484.46
2018-05-15T08:57:17.830Z,97481.43
2018-05-15T08:59:45.491Z,97474.84
2018-05-15T09:02:13.100Z,97478.20
2018-05-15T09:04:40.928Z,97474.77
2018-05-15T09:07:20.755Z,97483.39
2018-05-15T09:09:49.193Z,97488.81
2018-05-15T09:35:30.256Z,97471.09
2018-05-15T09:37:57.842Z,97470.23
2018-05-15T09:40:25.450Z,97473.88
2018-05-15T09:42:53.039Z,97476.52
2018-05-15T09:45:21.136Z,97472.72
2018-05-15T09:47:48.958Z,97471.96
2018-05-15T09:50:16.751Z,97474.72
2018-05-15T09:52:44.672Z,97480.98
2018-05-15T09:55:12.603Z,97469.25
2018-05-15T09:57:40.574Z,97470.25
2018-05-15T10:00:08.449Z,97463.69
2018-05-15T10:02:36.693Z,97461.80
2018-05-15T10:05:04.691Z,97474.72
2018-05-15T10:07:32.592Z,97472.45
2018-05-15T10:10:00.590Z,97471.09
2018-05-15T10:12:28.394Z,97474.10
2018-05-15T10:14:56.366Z,97466.11
2018-05-15T10:17:24.835Z,97458.09
2018-05-15T10:19:53.294Z,97466.91
2018-05-15T10:22:20.874Z,97461.03
2018-05-15T10:24:48.463Z,97459.35
2018-05-15T10:27:16.083Z,97456.56
2018-05-15T10:29:43.759Z,97454.22
2018-05-15T10:32:12.277Z,97449.78
2018-05-15T10:34:40.114Z,97454.79
2018-05-15T10:37:08.168Z,97452.70
2018-05-15T10:39:35.776Z,97458.89
2018-05-15T10:42:03.424Z,97450.71
2018-05-15T10:44:32.858Z,97455.88
2018-05-15T10:47:00.454Z,97450.26
2018-05-15T10:49:28.098Z,97458.23
2018-05-15T10:51:56.116Z,97451.19
2018-05-15T10:54:23.787Z,97447.71
2018-05-15T10:56:51.420Z,97453.34
2018-05-15T10:59:19.015Z,97451.37
2018-05-15T11:01:46.620Z,97455.73
2018-05-15T11:04:14.222Z,97452.63
2018-05-15T11:06:43.926Z,97450.58
2018-05-15T11:09:11.564Z,97442.66
2018-05-15T11:11:39.252Z,97449.12
2018-05-15T11:14:06.872Z,97446.56
2018-05-15T11:16:34.461Z,97447.31
2018-05-15T11:19:13.819Z,97432.75
2018-05-15T11:21:53.366Z,97437.83
2018-05-15T11:24:32.858Z,97433.87
2018-05-15T11:27:00.466Z,97438.83
2018-05-15T11:29:28.113Z,97434.28
2018-05-15T11:31:55.736Z,97440.41
2018-05-15T11:34:23.333Z,97431.76
2018-05-15T11:36:51.000Z,97426.47
2018-05-15T11:39:18.611Z,97421.73
2018-05-15T11:41:46.491Z,97418.02
2018-05-15T11:44:14.409Z,97423.17
2018-05-15T11:46:42.017Z,97416.67
2018-05-15T11:49:10.247Z,97417.09
2018-05-15T11:51:38.123Z,97417.30
2018-05-15T11:54:05.055Z,97410.03
2018-05-15T11:56:32.726Z,97404.52
2018-05-15T11:59:00.540Z,97410.84
2018-05-15T12:01:28.123Z,97413.59
2018-05-15T12:03:56.021Z,97422.17
2018-05-15T12:06:23.903Z,97427.28
2018-05-15T12:08:51.541Z,97430.63
2018-05-15T12:11:19.150Z,97429.27
2018-05-15T12:14:00.281Z,97449.81
2018-05-15T12:16:28.814Z,97443.00
2018-05-15T12:18:56.405Z,97452.82
2018-05-15T12:21:24.063Z,97462.58
2018-05-15T12:23:52.154Z,97470.95
2018-05-15T12:26:19.747Z,97477.78
2018-05-15T12:28:47.370Z,97477.77
2018-05-15T12:31:14.976Z,97489.12
2018-05-15T12:33:42.586Z,97484.83
2018-05-15T12:36:10.182Z,97484.16
2018-05-15T12:38:37.803Z,97480.95
2018-05-15T12:41:05.423Z,97474.96
2018-05-15T12:43:33.028Z,97473.16
2018-05-15T12:46:00.667Z,97473.89
2018-05-15T12:48:28.345Z,97468.50
2018-05-15T12:50:55.898Z,97465.88
2018-05-15T12:53:23.483Z,97466.08
2018-05-15T12:55:51.258Z,97464.41
2018-05-15T12:58:18.919Z,97462.36
2018-05-15T13:00:46.512Z,97464.94
2018-05-15T13:03:14.141Z,97472.94
2018-05-15T13:05:41.733Z,97469.29
2018-05-15T13:08:09.470Z,97470.24
2018-05-15T13:10:37.065Z,97465.52
2018-05-15T13:13:04.681Z,97470.16
2018-05-15T13:15:32.315Z,97470.52
2018-05-15T13:17:59.898Z,97459.00
2018-05-15T13:20:27.614Z,97462.16
2018-05-15T13:22:55.190Z,97453.26
2018-05-15T13:25:22.794Z,97461.81
2018-05-15T13:27:50.422Z,97453.81
2018-05-15T13:30:18.042Z,97442.23
2018-05-15T13:32:46.869Z,97449.30
2018-05-15T13:35:14.552Z,97440.55
2018-05-15T13:37:42.754Z,97442.88
2018-05-15T13:40:10.482Z,97437.23
2018-05-15T13:42:38.098Z,97433.20
2018-05-15T13:45:05.682Z,97421.72
2018-05-15T13:47:33.299Z,97428.05
2018-05-15T13:50:00.934Z,97425.13
2018-05-15T13:52:28.545Z,97420.92
2018-05-15T13:54:56.171Z,97422.62
2018-05-15T13:57:23.795Z,97421.84
2018-05-15T13:59:51.700Z,97416.77
2018-05-15T14:02:19.288Z,97419.96
2018-05-15T14:04:47.048Z,97412.41
2018-05-15T14:07:14.707Z,97417.00
2018-05-15T14:09:42.368Z,97418.02
2018-05-15T14:12:09.973Z,97419.95
2018-05-15T14:14:37.575Z,97421.42
2018-05-15T14:17:05.183Z,97418.73
2018-05-15T14:19:32.771Z,97421.12
2018-05-15T14:22:00.388Z,97423.59
2018-05-15T14:24:27.979Z,97424.80
2018-05-15T14:26:55.587Z,97421.03
2018-05-15T14:29:24.063Z,97423.18
2018-05-15T14:31:51.714Z,97424.48
2018-05-15T14:34:19.316Z,97421.69
2018-05-15T14:36:47.032Z,97421.73
2018-05-15T14:39:14.636Z,97430.86
2018-05-15T14:41:54.264Z,97426.17
2018-05-15T14:44:21.870Z,97426.88
2018-05-15T14:46:49.718Z,97434.37
2018-05-15T14:49:17.347Z,97434.59
2018-05-15T14:51:44.948Z,97433.95
2018-05-15T14:54:13.444Z,97431.06
2018-05-15T14:56:41.040Z,97436.08
2018-05-15T14:59:08.765Z,97437.77
2018-05-15T15:01:36.362Z,97441.08
2018-05-15T15:04:03.987Z,97434.66
2018-05-15T15:06:31.622Z,97440.05
2018-05-15T15:08:59.250Z,97441.81
2018-05-15T15:11:26.841Z,97434.98
2018-05-15T15:13:54.461Z,97433.78
2018-05-15T15:16:22.135Z,97435.64
2018-05-15T15:18:49.749Z,97426.34
2018-05-15T15:21:17.352Z,97422.06
2018-05-15T15:23:45.062Z,97429.02
2018-05-15T15:26:12.592Z,97430.70
2018-05-15T15:28:40.216Z,97435.67
2018-05-15T15:31:07.818Z,97424.41
2018-05-15T15:33:35.443Z,97425.01
2018-05-15T15:36:03.034Z,97421.70
2018-05-15T15:38:30.654Z,97434.01
2018-05-15T15:40:58.243Z,97426.48
2018-05-15T15:43:25.872Z,97437.27
2018-05-15T15:45:53.503Z,97429.81
2018-05-15T15:48:21.129Z,97431.33
2018-05-15T15:50:48.725Z,97435.35
2018-05-15T15:53:16.329Z,97439.42
2018-05-15T15:55:44.052Z,97441.39
2018-05-15T15:58:11.660Z,97439.78
2018-05-15T16:00:39.298Z,97434.80
2018-05-15T16:03:06.902Z,97447.96
2018-05-15T16:05:34.693Z,97431.63
2018-05-15T16:08:02.313Z,97434.25
2018-05-15T16:10:29.910Z,97434.13
2018-05-15T16:12:57.591Z,97427.78
2018-05-15T16:15:25.253Z,97435.69
2018-05-15T16:17:52.862Z,97427.48
2018-05-15T16:20:20.451Z,97440.19
2018-05-15T16:22:48.090Z,97427.66
2018-05-15T16:25:15.689Z,97430.47
2018-05-15T16:27:43.557Z,97433.14
2018-05-15T16:30:11.151Z,97431.61
2018-05-15T16:32:39.023Z,97434.58
2018-05-15T16:35:06.679Z,97433.09
2018-05-15T16:37:34.422Z,97429.23
2018-05-15T16:40:02.089Z,97434.27
2018-05-15T16:42:29.700Z,97431.41
2018-05-15T16:44:57.409Z,97439.84
2018-05-15T16:47:25.032Z,97440.70
2018-05-15T16:49:52.666Z,97448.11
2018-05-15T16:52:20.263Z,97445.66
2018-05-15T16:54:47.888Z,97453.88
2018-05-15T16:57:15.517Z,97457.31
2018-05-15T16:59:43.244Z,97464.28
2018-05-15T17:02:10.948Z,97463.02
2018-05-15T17:04:38.542Z,97467.59
2018-05-15T17:07:06.230Z,97470.84
2018-05-15T17:09:33.839Z,97464.15
2018-05-15T17:12:01.442Z,97468.17
2018-05-15T17:14:29.071Z,97468.55
2018-05-15T17:16:56.679Z,97472.53
2018-05-15T17:19:24.300Z,97465.66
2018-05-15T17:21:51.894Z,97470.62
2018-05-15T17:24:19.550Z,97472.41
2018-05-15T17:26:47.154Z,97467.67
2018-05-15T17:29:14.759Z,97477.52
2018-05-15T17:31:42.390Z,97479.87
2018-05-15T17:34:09.994Z,97476.28
2018-05-15T17:36:37.619Z,97466.31
2018-05-15T17:39:05.897Z,97468.75
2018-05-15T17:41:33.534Z,97478.48
2018-05-15T17:44:01.140Z,97474.19
2018-05-15T17:46:28.760Z,97479.95
2018-05-15T17:48:56.359Z,97479.19
2018-05-15T17:51:24.150Z,97481.98
2018-05-15T17:53:52.157Z,97487.00
2018-05-15T17:56:19.762Z,97478.20
2018-05-15T17:58:47.381Z,97486.63
2018-05-15T18:01:15.156Z,97482.61
2018-05-15T18:03:42.787Z,97479.09
2018-05-15T18:06:10.392Z,97485.63
2018-05-15T18:08:38.036Z,97481.02
2018-05-15T18:11:05.650Z,97482.56
2018-05-15T18:13:33.282Z,97485.33
2018-05-15T18:16:00.891Z,97487.22
2018-05-15T18:18:28.511Z,97479.37
2018-05-15T18:20:56.118Z,97474.80
2018-05-15T18:23:23.731Z,97469.73
2018-05-15T18:25:51.316Z,97473.78
2018-05-15T18:28:18.933Z,97474.84
2018-05-15T18:30:46.538Z,97472.00
2018-05-15T18:33:14.390Z,97471.61
2018-05-15T18:35:41.961Z,97467.61
2018-05-15T18:38:09.566Z,97467.17
2018-05-15T18:40:37.175Z,97467.93
2018-05-15T18:43:04.771Z,97460.44
2018-05-15T18:45:32.390Z,97471.39
2018-05-15T18:47:59.992Z,97476.23
2018-05-15T18:50:27.623Z,97481.27
2018-05-15T18:52:55.211Z,97491.88
2018-05-15T18:55:24.030Z,97495.48
2018-05-15T18:57:51.657Z,97497.80
2018-05-15T19:00:19.300Z,97494.15
2018-05-15T19:02:46.901Z,97497.52
2018-05-15T19:05:14.534Z,97489.30
2018-05-15T19:07:42.255Z,97500.21
2018-05-15T19:10:09.870Z,97509.95
2018-05-15T19:12:37.579Z,97512.73
2018-05-15T19:15:05.180Z,97517.80
2018-05-15T19:17:33.020Z,97516.92
2018-05-15T19:20:00.625Z,97514.86
2018-05-15T19:22:28.230Z,97516.59
2018-05-15T19:24:55.946Z,97512.45
2018-05-15T19:27:23.558Z,97514.82
2018-05-15T19:29:51.181Z,97520.84
2018-05-15T19:32:18.782Z,97518.53
2018-05-15T19:34:52.065Z,97523.90
2018-05-15T19:37:19.663Z,97517.84
2018-05-15T19:39:47.278Z,97525.09
2018-05-15T19:42:15.000Z,97519.41
2018-05-15T19:44:42.919Z,97520.45
2018-05-15T19:47:10.514Z,97522.48
2018-05-15T19:49:38.105Z,97513.47
2018-05-15T19:52:05.740Z,97525.22
2018-05-15T19:54:33.353Z,97520.30
2018-05-15T19:57:00.962Z,97506.70
2018-05-15T19:59:28.555Z,97516.55
2018-05-15T20:01:56.203Z,97510.77
2018-05-15T20:04:23.808Z,97521.53
2018-05-15T20:06:51.404Z,97517.73
2018-05-15T20:09:19.026Z,97517.88
2018-05-15T20:11:46.646Z,97518.53
2018-05-15T20:14:14.568Z,97525.48
2018-05-15T20:16:42.167Z,97527.39
2018-05-15T20:19:09.771Z,97526.58
2018-05-15T20:21:37.394Z,97523.16
2018-05-15T20:24:04.997Z,97524.95
2018-05-15T20:26:32.782Z,97530.71
2018-05-15T20:29:00.393Z,97528.81
2018-05-15T20:31:28.002Z,97529.30
2018-05-15T20:33:55.618Z,97538.34
2018-05-15T20:36:23.236Z,97539.93
2018-05-15T20:38:50.871Z,97540.78
2018-05-15T20:41:18.482Z,97537.69
2018-05-15T20:43:46.323Z,97542.77
2018-05-15T20:46:13.925Z,97549.41
2018-05-15T20:48:41.518Z,97551.18
2018-05-15T20:51:09.134Z,97547.09
2018-05-15T20:53:36.729Z,97549.02
2018-05-15T20:56:04.344Z,97548.34
2018-05-15T20:58:31.945Z,97535.31
2018-05-15T21:00:59.762Z,97539.08
2018-05-15T21:03:27.380Z,97549.66
2018-05-15T21:05:54.997Z,97535.52
2018-05-15T21:08:22.690Z,97544.18
2018-05-15T21:10:50.298Z,97547.27
2018-05-15T21:13:18.037Z,97543.17
2018-05-15T21:15:45.621Z,97547.16
2018-05-15T21:18:13.243Z,97552.40
2018-05-15T21:20:40.838Z,97551.27
2018-05-15T21:23:08.624Z,97542.66
2018-05-15T21:25:36.229Z,97539.95
2018-05-15T21:28:03.810Z,97542.75
2018-05-15T21:30:31.430Z,97537.06
2018-05-15T21:32:59.035Z,97541.30
2018-05-15T21:35:26.650Z,97538.19
2018-05-15T21:37:54.246Z,97535.64
2018-05-15T21:40:22.051Z,97538.14
2018-05-15T21:42:49.655Z,97532.20
2018-05-15T21:45:17.254Z,97538.91
2018-05-15T21:47:44.867Z,97533.66
2018-05-15T21:50:12.469Z,97529.49
2018-05-15T21:52:40.131Z,97536.66
2018-05-15T21:55:07.727Z,97536.92
2018-05-15T21:57:35.530Z,97543.99
2018-05-15T22:00:03.121Z,97545.06
2018-05-15T22:02:30.734Z,97550.14
2018-05-15T22:04:58.345Z,97537.80
2018-05-15T22:07:25.942Z,97540.09
2018-05-15T22:09:53.564Z,97538.41
2018-05-15T22:12:32.900Z,97536.38
2018-05-15T22:15:12.256Z,97542.09
2018-05-15T22:17:51.659Z,97542.38
2018-05-15T22:20:31.044Z,97536.66
2018-05-15T22:22:58.068Z,97530.38
2018-05-15T22:25:25.690Z,97531.86
2018-05-15T22:27:53.296Z,97531.81
2018-05-15T22:30:20.944Z,97532.25
2018-05-15T22:32:48.577Z,97528.46
2018-05-15T22:35:16.182Z,97531.98
2018-05-15T22:37:43.818Z,97522.26
2018-05-15T22:40:11.418Z,97524.50
2018-05-15T22:42:39.086Z,97524.08
2018-05-15T22:45:06.680Z,97519.32
2018-05-15T22:47:34.518Z,97518.11
2018-05-15T22:50:02.115Z,97523.44
2018-05-15T22:52:29.714Z,97519.05
2018-05-15T22:54:57.347Z,97511.98
2018-05-15T22:57:24.948Z,97516.95
2018-05-15T22:59:52.562Z,97512.59
2018-05-15T23:02:20.158Z,97510.46
2018-05-15T23:04:48.775Z,97524.69
2018-05-15T23:07:16.372Z,97515.97
2018-05-15T23:09:43.984Z,97521.45
2018-05-15T23:12:11.597Z,97520.59
2018-05-15T23:14:39.198Z,97519.59
2018-05-15T23:17:06.823Z,97514.42
2018-05-15T23:19:34.429Z,97504.03
2018-05-15T23:22:02.250Z,97502.97
2018-05-15T23:24:29.845Z,97510.80
2018-05-15T23:26:57.439Z,97504.34
2018-05-15T23:29:25.096Z,97510.47
2018-05-15T23:31:52.690Z,97513.96
2018-05-15T23:34:20.315Z,97510.33
2018-05-15T23:36:47.927Z,97511.97
2018-05-15T23:39:15.567Z,97512.08
2018-05-15T23:41:43.173Z,97508.72
2018-05-15T23:44:10.789Z,97504.47
2018-05-15T23:46:38.418Z,97500.62
2018-05-15T23:49:06.010Z,97507.59
2018-05-15T23:51:33.635Z,97502.27
2018-05-15T23:54:01.246Z,97506.17
2018-05-15T23:56:29.006Z,97499.45
2018-05-15T23:58:56.606Z,97501.99
